Portada
METAR-TAF:

METAR-TAF

Aeropuertos :

Aeropuerto de Sofía

Sofía, Bulgaria

latitud: 42-39N, longitud: 023-23E, altitud: 586 m

Observación

El informe se hizo hace 32 minutos, a las 06:00 UTC
Viento 4 kt del oeste-noroeste
Temperatura 2°C
Humedad 80%
Presión 1021 hPa
Visibilidad 10 km o más
Cielo nuboso a una altura de 3400 ft

METAR: LBSF 210600Z 29004KT 9999 BKN034 02/M01 Q1021 R99/29//95 NOSIG

Hora: 08:32 (06:32 UTC)

Pronóstico

El informe se hizo hace 1 hora y 32 minutos, a las 05:00 UTC
Pronóstico válido del 21 a las 06 UTC al 22 a las 06 UTC
Viento 10 kt del oeste
Visibilidad 10 km o más
Nubes dispersas a una altura de 2500 ft
Cielo nuboso a una altura de 4000 ft
Temporalmente
del 21 a las 21 UTC al 22 a las 03 UTC
Visibilidad: 4000 m
Cielo nuboso a una altura de 700 ft
Cielo cubierto a una altura de 2000 ft
nieve

TAF: LBSF 210500Z 2106/2206 28010KT 9999 SCT025 BKN040 TEMPO 2121/2203 4000 SN BKN007 OVC020

Observaciones y pronósticos meteorológicos de más de 4000 aeropuertos (mensajes METAR y TAF).

Los puntos amarillos y rojos representan las estaciones disponibles.

Ponga el ratón en el punto deseado para ver el nombre de la estación.

Haga clic para ver las observaciones y los pronósticos meteorológicos.

Para cambiar el mapa : haga clic en los botones verdes con una cruz de color negro para hacer un zoom, en el botón verde con un guión para alejar o en las flechas verdes para mapas adyacentes.


METAR-TAF: